Volcan De Teneguia — ECLA — position and weather

sailwx.info

Track history (hours):
 
Tides and Currents Weather Stations Pressure Air Temp Water Temp Dewpoint Dewpoint Depression Visibility Wind Speed Wind Dir Waves Ship Positions

Volcan De Teneguia

Last reported at 2016-Sep-30 08:32 UTC. Time now 2016-Sep-30 10:06 UTC.
Position N 28°09' W 015°25'.

Length 145 m; draft 5.1 m.

Type: Cargo ship. MMSI: 225317000.

Date/timePositionNaut miles runAvg speedWind from/ knotsBaromVisibWave heightAir tempDewpointWater temp
2016-Sep-30 08:32N 28°09' W 015°25'0 0.0
2016-Sep-30 06:32N 28°09' W 015°25'14 4.6
2016-Sep-30 03:34N 28°13' W 015°40'1110.8
2016-Sep-30 02:34N 28°14' W 015°52'21 6.9
2016-Sep-29 23:31N 28°27' W 016°11'3 1.5
2016-Sep-29 21:21N 28°29' W 016°14'0 0.0
2016-Sep-29 20:27N 28°29' W 016°14'0 0.0
2016-Sep-29 19:27N 28°29' W 016°14'23 8.0
2016-Sep-29 16:33N 28°43' W 015°52'1514.8
2016-Sep-29 15:33N 28°53' W 015°41'1515.0
2016-Sep-29 14:33N 29°03' W 015°28'1515.0
2016-Sep-29 13:33N 29°14' W 015°16'24114.9
2016-Sep-28 21:23N 32°03' W 011°55'14115.4
2016-Sep-28 12:12N 33°41' W 009°55'5214.2
2016-Sep-28 08:33N 34°17' W 009°10'8914.4
2016-Sep-28 02:23N 35°20' W 007°53'1214.0
2016-Sep-28 01:33N 35°28' W 007°43'2814.1
2016-Sep-27 23:33N 35°47' W 007°19'  
2016-Sep-24 12:33N 30°05' W 014°17'2512.6
2016-Sep-24 10:33N 29°48' W 014°38'1412.9
2016-Sep-24 09:30N 29°38' W 014°48'7312.2
2016-Sep-24 03:33N 28°47' W 015°47'1211.6
2016-Sep-24 02:33N 28°38' W 015°57'1211.7
2016-Sep-24 01:33N 28°30' W 016°07'6 5.3
2016-Sep-24 00:21N 28°29' W 016°14'0 0.0
2016-Sep-23 19:24N 28°29' W 016°14'0 0.0
2016-Sep-23 17:31N 28°29' W 016°14'1010.3
2016-Sep-23 16:33N 28°25' W 016°04'1514.6
2016-Sep-23 15:33N 28°20' W 015°48'2512.3
2016-Sep-23 13:33N 28°07' W 015°24'2 0.4
2016-Sep-23 09:30N 28°09' W 015°25'0 0.0
2016-Sep-23 06:33N 28°09' W 015°25'4 2.1
2016-Sep-23 04:34N 28°13' W 015°25'1111.3
2016-Sep-23 03:33N 28°17' W 015°38'6 6.2
2016-Sep-23 02:33N 28°19' W 015°44'6 5.9
2016-Sep-23 01:33N 28°21' W 015°50'1110.9
2016-Sep-23 00:33N 28°24' W 016°02'1111.1
2016-Sep-22 23:33N 28°29' W 016°14'1 0.2
2016-Sep-22 20:10N 28°29' W 016°14'  
Track history (hours):
 
Tides and Currents Weather Stations Pressure Air Temp Water Temp Dewpoint Dewpoint Depression Visibility Wind Speed Wind Dir Waves Ship Positions

Volcan De Teneguia

Last reported at 2016-Sep-30 08:32 UTC. Time now 2016-Sep-30 10:06 UTC.
Position N 28°09' W 015°25'.

Length 145 m; draft 5.1 m.

Type: Cargo ship. MMSI: 225317000.

Date/timePositionNaut miles runAvg speedWind from/ knotsBaromVisibWave heightAir tempDewpointWater temp
2016-Sep-30 08:32N 28°09' W 015°25'0 0.0
2016-Sep-30 06:32N 28°09' W 015°25'14 4.6
2016-Sep-30 03:34N 28°13' W 015°40'1110.8
2016-Sep-30 02:34N 28°14' W 015°52'21 6.9
2016-Sep-29 23:31N 28°27' W 016°11'3 1.5
2016-Sep-29 21:21N 28°29' W 016°14'0 0.0
2016-Sep-29 20:27N 28°29' W 016°14'0 0.0
2016-Sep-29 19:27N 28°29' W 016°14'23 8.0
2016-Sep-29 16:33N 28°43' W 015°52'1514.8
2016-Sep-29 15:33N 28°53' W 015°41'1515.0
2016-Sep-29 14:33N 29°03' W 015°28'1515.0
2016-Sep-29 13:33N 29°14' W 015°16'24114.9
2016-Sep-28 21:23N 32°03' W 011°55'14115.4
2016-Sep-28 12:12N 33°41' W 009°55'5214.2
2016-Sep-28 08:33N 34°17' W 009°10'8914.4
2016-Sep-28 02:23N 35°20' W 007°53'1214.0
2016-Sep-28 01:33N 35°28' W 007°43'2814.1
2016-Sep-27 23:33N 35°47' W 007°19'  
2016-Sep-24 12:33N 30°05' W 014°17'2512.6
2016-Sep-24 10:33N 29°48' W 014°38'1412.9
2016-Sep-24 09:30N 29°38' W 014°48'7312.2
2016-Sep-24 03:33N 28°47' W 015°47'1211.6
2016-Sep-24 02:33N 28°38' W 015°57'1211.7
2016-Sep-24 01:33N 28°30' W 016°07'6 5.3
2016-Sep-24 00:21N 28°29' W 016°14'0 0.0
2016-Sep-23 19:24N 28°29' W 016°14'0 0.0
2016-Sep-23 17:31N 28°29' W 016°14'1010.3
2016-Sep-23 16:33N 28°25' W 016°04'1514.6
2016-Sep-23 15:33N 28°20' W 015°48'2512.3
2016-Sep-23 13:33N 28°07' W 015°24'2 0.4
2016-Sep-23 09:30N 28°09' W 015°25'0 0.0
2016-Sep-23 06:33N 28°09' W 015°25'4 2.1
2016-Sep-23 04:34N 28°13' W 015°25'1111.3
2016-Sep-23 03:33N 28°17' W 015°38'6 6.2
2016-Sep-23 02:33N 28°19' W 015°44'6 5.9
2016-Sep-23 01:33N 28°21' W 015°50'1110.9
2016-Sep-23 00:33N 28°24' W 016°02'1111.1
2016-Sep-22 23:33N 28°29' W 016°14'1 0.2
2016-Sep-22 20:10N 28°29' W 016°14'  

Dump ship's entire track history